createdAt,value
2019-06-01T00:00:12.328Z,1004.12
2019-06-01T00:01:11.069Z,1004.07
2019-06-01T00:02:11.059Z,1004.11
2019-06-01T00:03:11.109Z,1004.08
2019-06-01T00:04:11.212Z,1004.07
2019-06-01T00:05:11.149Z,1004.09
2019-06-01T00:07:34.014Z,1004.07
2019-06-01T00:08:33.430Z,1004.09
2019-06-01T00:09:33.371Z,1004.01
2019-06-01T00:10:33.370Z,1004.04
2019-06-01T00:11:33.396Z,1004.05
2019-06-01T00:12:33.337Z,1004.03
2019-06-01T00:13:33.327Z,1004.02
2019-06-01T00:14:33.385Z,1004.02
2019-06-01T00:15:33.349Z,1004.02
2019-06-01T00:16:33.322Z,1004.03
2019-06-01T00:17:33.360Z,1004.01
2019-06-01T00:18:33.321Z,1003.99
2019-06-01T00:19:33.306Z,1004.03
2019-06-01T00:20:33.341Z,1004.04
2019-06-01T00:21:33.262Z,1004.04
2019-06-01T00:22:33.228Z,1003.99
2019-06-01T00:23:33.354Z,1004.02
2019-06-01T00:24:33.216Z,1004.01
2019-06-01T00:25:33.213Z,1004.02
2019-06-01T00:26:33.259Z,1004.00
2019-06-01T00:27:33.257Z,1004.00
2019-06-01T00:28:33.164Z,1003.99
2019-06-01T00:29:33.163Z,1003.96
2019-06-01T00:30:33.163Z,1003.96
2019-06-01T00:31:33.130Z,1003.97
2019-06-01T00:32:33.182Z,1003.96
2019-06-01T00:33:33.119Z,1003.95
2019-06-01T00:34:33.094Z,1003.94
2019-06-01T00:35:33.092Z,1003.94
2019-06-01T00:36:33.073Z,1003.92
2019-06-01T00:37:33.142Z,1003.96
2019-06-01T00:38:33.107Z,1003.94
2019-06-01T00:39:33.139Z,1003.93
2019-06-01T00:40:33.058Z,1003.95
2019-06-01T00:41:33.136Z,1003.98
2019-06-01T00:42:33.015Z,1003.98
2019-06-01T00:43:33.026Z,1003.97
2019-06-01T00:44:33.166Z,1003.99
2019-06-01T00:45:32.973Z,1003.99
2019-06-01T00:46:32.963Z,1004.01
2019-06-01T00:47:33.066Z,1003.99
2019-06-01T00:48:32.982Z,1004.00
2019-06-01T00:49:32.943Z,1004.01
2019-06-01T00:50:33.066Z,1003.97
2019-06-01T00:51:32.910Z,1003.97
2019-06-01T00:52:32.905Z,1004.04
2019-06-01T00:53:32.932Z,1004.02
2019-06-01T00:54:32.892Z,1004.02
2019-06-01T00:55:32.866Z,1003.97
2019-06-01T00:56:32.908Z,1004.06
2019-06-01T00:57:32.842Z,1004.05
2019-06-01T00:58:32.871Z,1004.01
2019-06-01T00:59:32.825Z,1004.00
2019-06-01T01:00:43.226Z,1003.94
2019-06-01T01:01:33.853Z,1003.98
2019-06-01T01:02:32.793Z,1003.95
2019-06-01T01:03:32.831Z,1003.99
2019-06-01T01:04:32.790Z,1004.04
2019-06-01T01:05:32.801Z,1003.98
2019-06-01T01:06:32.778Z,1003.99
2019-06-01T01:07:32.781Z,1003.99
2019-06-01T01:08:32.769Z,1004.01
2019-06-01T01:09:32.872Z,1003.99
2019-06-01T01:10:32.719Z,1004.01
2019-06-01T01:11:32.738Z,1004.00
2019-06-01T01:12:32.688Z,1003.95
2019-06-01T01:13:32.733Z,1004.03
2019-06-01T01:14:32.665Z,1004.01
2019-06-01T01:15:32.681Z,1004.07
2019-06-01T01:16:32.665Z,1004.09
2019-06-01T01:17:32.622Z,1004.06
2019-06-01T01:18:32.628Z,1004.02
2019-06-01T01:19:32.658Z,1004.02
2019-06-01T01:20:32.595Z,1004.01
2019-06-01T01:21:32.577Z,1004.01
2019-06-01T01:22:32.587Z,1004.04
2019-06-01T01:23:32.555Z,1004.03
2019-06-01T01:24:32.577Z,1004.04
2019-06-01T01:25:32.624Z,1004.04
2019-06-01T01:26:32.585Z,1004.00
2019-06-01T01:27:32.514Z,1004.03
2019-06-01T01:28:32.508Z,1004.00
2019-06-01T01:29:32.504Z,1004.02
2019-06-01T01:30:32.486Z,1004.02
2019-06-01T01:31:32.531Z,1004.02
2019-06-01T01:32:32.468Z,1004.02
2019-06-01T01:33:32.455Z,1004.02
2019-06-01T01:34:32.447Z,1004.07
2019-06-01T01:35:32.430Z,1004.08
2019-06-01T01:36:32.482Z,1004.08
2019-06-01T01:37:32.445Z,1004.11
2019-06-01T01:38:32.425Z,1004.07
2019-06-01T01:39:32.394Z,1004.07
2019-06-01T01:40:32.387Z,1004.07
2019-06-01T01:41:32.373Z,1004.10
2019-06-01T01:42:32.362Z,1004.10
2019-06-01T01:43:32.394Z,1004.12
2019-06-01T01:44:32.342Z,1004.09
2019-06-01T01:45:32.340Z,1004.12
2019-06-01T01:46:32.317Z,1004.08
2019-06-01T01:47:32.292Z,1004.10
2019-06-01T01:48:32.311Z,1004.12
2019-06-01T01:49:32.304Z,1004.12
2019-06-01T01:50:32.299Z,1004.10
2019-06-01T01:51:32.251Z,1004.17
2019-06-01T01:52:32.240Z,1004.14
2019-06-01T01:53:32.251Z,1004.17
2019-06-01T01:54:32.217Z,1004.19
2019-06-01T01:55:32.264Z,1004.14
2019-06-01T01:56:32.192Z,1004.15
2019-06-01T01:57:32.185Z,1004.12
2019-06-01T01:58:32.170Z,1004.08
2019-06-01T01:59:32.176Z,1004.08
2019-06-01T02:00:32.155Z,1004.07
2019-06-01T02:01:32.559Z,1004.06
2019-06-01T02:02:32.132Z,1004.01
2019-06-01T02:03:32.172Z,1004.02
2019-06-01T02:04:32.128Z,1004.09
2019-06-01T02:05:32.139Z,1004.05
2019-06-01T02:06:32.091Z,1004.05
2019-06-01T02:07:32.337Z,1004.01
2019-06-01T02:08:32.086Z,1004.02
2019-06-01T02:09:32.155Z,1003.98
2019-06-01T02:10:32.055Z,1003.91
2019-06-01T02:11:32.042Z,1003.96
2019-06-01T02:12:33.047Z,1003.93
2019-06-01T02:13:32.238Z,1003.94
2019-06-01T02:14:32.006Z,1003.92
2019-06-01T02:15:32.515Z,1003.93
2019-06-01T02:16:31.986Z,1003.93
2019-06-01T02:17:32.355Z,1003.94
2019-06-01T02:18:31.956Z,1003.90
2019-06-01T02:19:32.013Z,1003.95
2019-06-01T02:20:31.958Z,1003.98
2019-06-01T02:21:31.957Z,1003.98
2019-06-01T02:22:31.991Z,1004.00
2019-06-01T02:23:32.070Z,1003.96
2019-06-01T02:24:31.896Z,1003.94
2019-06-01T02:25:31.925Z,1003.97
2019-06-01T02:26:31.880Z,1003.94
2019-06-01T02:27:31.851Z,1003.93
2019-06-01T02:28:31.855Z,1003.94
2019-06-01T02:29:31.835Z,1003.93
2019-06-01T02:30:31.876Z,1003.92
2019-06-01T02:31:41.792Z,1003.91
2019-06-01T02:32:32.798Z,1003.91
2019-06-01T02:33:31.875Z,1003.89
2019-06-01T02:34:31.780Z,1003.91
2019-06-01T02:35:31.764Z,1003.96
2019-06-01T02:36:31.782Z,1003.93
2019-06-01T02:37:31.894Z,1003.92
2019-06-01T02:38:31.767Z,1003.94
2019-06-01T02:39:31.755Z,1003.89
2019-06-01T02:40:31.713Z,1003.92
2019-06-01T02:41:31.843Z,1003.91
2019-06-01T02:42:31.712Z,1003.92
2019-06-01T02:43:31.762Z,1003.92
2019-06-01T02:44:31.686Z,1003.91
2019-06-01T02:45:31.729Z,1003.94
2019-06-01T02:46:35.425Z,1003.85
2019-06-01T02:47:31.633Z,1003.90
2019-06-01T02:48:31.692Z,1003.85
2019-06-01T02:49:32.515Z,1003.85
2019-06-01T02:50:31.596Z,1003.85
2019-06-01T02:51:31.590Z,1003.87
2019-06-01T02:52:31.600Z,1003.83
2019-06-01T02:53:31.569Z,1003.80
2019-06-01T02:54:31.557Z,1003.81
2019-06-01T02:55:31.603Z,1003.83
2019-06-01T02:56:31.534Z,1003.79
2019-06-01T02:57:31.541Z,1003.79
2019-06-01T02:58:31.519Z,1003.80
2019-06-01T02:59:31.595Z,1003.81
2019-06-01T03:00:31.578Z,1003.79
2019-06-01T03:01:31.578Z,1003.78
2019-06-01T03:02:31.506Z,1003.84
2019-06-01T03:03:31.462Z,1003.78
2019-06-01T03:04:31.471Z,1003.81
2019-06-01T03:05:31.443Z,1003.81
2019-06-01T03:06:31.465Z,1003.79
2019-06-01T03:07:31.552Z,1003.82
2019-06-01T03:08:31.465Z,1003.81
2019-06-01T03:09:31.457Z,1003.78
2019-06-01T03:10:31.387Z,1003.81
2019-06-01T03:11:31.376Z,1003.81
2019-06-01T03:12:31.436Z,1003.79
2019-06-01T03:13:31.408Z,1003.80
2019-06-01T03:14:31.436Z,1003.81
2019-06-01T03:15:31.386Z,1003.82
2019-06-01T03:16:31.324Z,1003.88
2019-06-01T03:17:31.426Z,1003.85
2019-06-01T03:18:31.321Z,1003.84
2019-06-01T03:19:31.600Z,1003.82
2019-06-01T03:20:31.277Z,1003.81
2019-06-01T03:21:31.414Z,1003.84
2019-06-01T03:22:31.252Z,1003.82
2019-06-01T03:23:31.241Z,1003.79
2019-06-01T03:24:31.292Z,1003.80
2019-06-01T03:25:31.322Z,1003.82
2019-06-01T03:26:31.212Z,1003.80
2019-06-01T03:27:31.210Z,1003.78
2019-06-01T03:28:31.193Z,1003.79
2019-06-01T03:29:31.202Z,1003.77
2019-06-01T03:30:31.264Z,1003.76
2019-06-01T03:31:31.181Z,1003.79
2019-06-01T03:32:36.521Z,1003.79
2019-06-01T03:33:32.138Z,1003.82
2019-06-01T03:34:31.146Z,1003.77
2019-06-01T03:35:31.120Z,1003.80
2019-06-01T03:36:31.109Z,1003.80
2019-06-01T03:37:31.372Z,1003.79
2019-06-01T03:38:31.090Z,1003.77
2019-06-01T03:39:31.164Z,1003.78
2019-06-01T03:40:31.049Z,1003.72
2019-06-01T03:41:31.043Z,1003.77
2019-06-01T03:42:31.032Z,1003.79
2019-06-01T03:43:31.073Z,1003.79
2019-06-01T03:44:31.016Z,1003.75
2019-06-01T03:45:31.002Z,1003.77
2019-06-01T03:46:31.000Z,1003.76
2019-06-01T03:47:31.008Z,1003.74
2019-06-01T03:48:30.968Z,1003.74
2019-06-01T03:49:31.067Z,1003.78
2019-06-01T03:50:30.956Z,1003.72
2019-06-01T03:51:30.934Z,1003.78
2019-06-01T03:52:30.964Z,1003.74
2019-06-01T03:53:30.922Z,1003.79
2019-06-01T03:54:30.970Z,1003.79
2019-06-01T03:55:30.967Z,1003.78
2019-06-01T03:56:31.016Z,1003.80
2019-06-01T03:57:30.880Z,1003.79
2019-06-01T03:58:30.853Z,1003.81
2019-06-01T03:59:30.846Z,1003.74
2019-06-01T04:00:30.854Z,1003.79
2019-06-01T04:01:30.868Z,1003.74
2019-06-01T04:02:33.358Z,1003.76
2019-06-01T04:03:30.841Z,1003.75
2019-06-01T04:04:30.798Z,1003.75
2019-06-01T04:05:30.781Z,1003.75
2019-06-01T04:06:30.785Z,1003.74
2019-06-01T04:07:30.792Z,1003.77
2019-06-01T04:08:30.756Z,1003.77
2019-06-01T04:09:30.755Z,1003.81
2019-06-01T04:10:30.734Z,1003.79
2019-06-01T04:11:30.759Z,1003.81
2019-06-01T04:12:30.712Z,1003.80
2019-06-01T04:13:30.744Z,1003.80
2019-06-01T04:14:30.690Z,1003.85
2019-06-01T04:15:30.700Z,1003.81
2019-06-01T04:16:30.692Z,1003.81
2019-06-01T04:17:32.821Z,1003.83
2019-06-01T04:18:30.675Z,1003.79
2019-06-01T04:19:30.664Z,1003.79
2019-06-01T04:20:30.631Z,1003.78
2019-06-01T04:21:30.628Z,1003.80
2019-06-01T04:22:30.588Z,1003.77
2019-06-01T04:23:30.580Z,1003.80
2019-06-01T04:24:30.652Z,1003.79
2019-06-01T04:25:30.589Z,1003.77
2019-06-01T04:26:30.551Z,1003.83
2019-06-01T04:27:30.534Z,1003.82
2019-06-01T04:28:30.523Z,1003.79
2019-06-01T04:29:30.532Z,1003.78
2019-06-01T04:30:30.520Z,1003.75
2019-06-01T04:31:30.529Z,1003.75
2019-06-01T04:32:30.634Z,1003.75
2019-06-01T04:33:30.476Z,1003.78
2019-06-01T04:34:30.460Z,1003.77
2019-06-01T04:35:30.446Z,1003.82
2019-06-01T04:36:30.439Z,1003.80
2019-06-01T04:37:30.495Z,1003.80
2019-06-01T04:38:30.415Z,1003.80
2019-06-01T04:39:30.400Z,1003.73
2019-06-01T04:40:30.391Z,1003.78
2019-06-01T04:41:30.400Z,1003.79
2019-06-01T04:42:30.394Z,1003.77
2019-06-01T04:43:30.413Z,1003.77
2019-06-01T04:44:30.349Z,1003.84
2019-06-01T04:45:30.336Z,1003.83
2019-06-01T04:46:30.348Z,1003.89
2019-06-01T04:47:30.318Z,1003.94
2019-06-01T04:48:30.302Z,1003.91
2019-06-01T04:49:30.702Z,1003.98
2019-06-01T04:50:30.277Z,1003.97
2019-06-01T04:51:30.276Z,1003.96
2019-06-01T04:52:30.270Z,1003.93
2019-06-01T04:53:30.258Z,1003.91
2019-06-01T04:54:30.237Z,1003.93
2019-06-01T04:55:30.299Z,1003.87
2019-06-01T04:56:30.216Z,1003.89
2019-06-01T04:57:30.205Z,1003.89
2019-06-01T04:58:30.219Z,1003.84
2019-06-01T04:59:30.182Z,1003.87
2019-06-01T05:00:30.210Z,1003.87
2019-06-01T05:01:30.215Z,1003.89
2019-06-01T05:02:30.163Z,1003.90
2019-06-01T05:03:30.143Z,1003.92
2019-06-01T05:04:30.127Z,1003.93
2019-06-01T05:05:30.115Z,1003.96
2019-06-01T05:06:30.129Z,1003.91
2019-06-01T05:07:30.149Z,1003.91
2019-06-01T05:08:30.087Z,1003.92
2019-06-01T05:09:30.079Z,1003.93
2019-06-01T05:10:30.068Z,1003.94
2019-06-01T05:11:30.074Z,1003.91
2019-06-01T05:12:30.067Z,1003.86
2019-06-01T05:13:30.072Z,1003.96
2019-06-01T05:14:30.018Z,1003.95
2019-06-01T05:15:30.010Z,1003.98
2019-06-01T05:16:30.002Z,1003.98
2019-06-01T05:17:29.985Z,1003.98
2019-06-01T05:18:29.991Z,1004.01
2019-06-01T05:19:30.013Z,1004.05
2019-06-01T05:20:29.958Z,1004.00
2019-06-01T05:21:29.946Z,1004.00
2019-06-01T05:22:29.930Z,1004.01
2019-06-01T05:23:29.920Z,1004.03
2019-06-01T05:24:29.949Z,1004.03
2019-06-01T05:25:30.107Z,1004.07
2019-06-01T05:26:29.890Z,1004.12
2019-06-01T05:27:29.889Z,1004.12
2019-06-01T05:28:29.869Z,1004.14
2019-06-01T05:29:29.855Z,1004.12
2019-06-01T05:30:29.868Z,1004.14
2019-06-01T05:31:29.879Z,1004.14
2019-06-01T05:32:29.826Z,1004.10
2019-06-01T05:33:37.430Z,1004.08
2019-06-01T05:34:30.800Z,1004.09
2019-06-01T05:35:29.790Z,1004.05
2019-06-01T05:36:29.882Z,1004.11
2019-06-01T05:37:29.824Z,1004.09
2019-06-01T05:38:29.775Z,1004.01
2019-06-01T05:39:29.754Z,1004.02
2019-06-01T05:40:29.736Z,1004.02
2019-06-01T05:41:29.727Z,1004.00
2019-06-01T05:42:29.714Z,1003.98
2019-06-01T05:43:29.783Z,1003.97
2019-06-01T05:44:29.751Z,1003.96
2019-06-01T05:45:29.686Z,1003.91
2019-06-01T05:46:29.706Z,1003.90
2019-06-01T05:47:29.660Z,1003.90
2019-06-01T05:48:30.760Z,1003.91
2019-06-01T05:49:29.696Z,1003.92
2019-06-01T05:50:29.644Z,1003.89
2019-06-01T05:51:29.624Z,1003.91
2019-06-01T05:52:29.609Z,1003.88
2019-06-01T05:53:29.617Z,1003.93
2019-06-01T05:54:29.582Z,1003.93
2019-06-01T05:55:29.612Z,1003.91
2019-06-01T05:56:29.574Z,1003.90
2019-06-01T05:57:29.559Z,1003.92
2019-06-01T05:58:29.539Z,1003.87
2019-06-01T05:59:29.531Z,1003.90
2019-06-01T06:00:29.535Z,1003.89
2019-06-01T06:01:29.548Z,1003.88
2019-06-01T06:02:29.502Z,1003.82
2019-06-01T06:03:39.935Z,1003.85
2019-06-01T06:04:30.577Z,1003.81
2019-06-01T06:05:29.465Z,1003.84
2019-06-01T06:06:29.476Z,1003.79
2019-06-01T06:07:29.473Z,1003.81
2019-06-01T06:08:29.581Z,1003.83
2019-06-01T06:09:29.421Z,1003.80
2019-06-01T06:10:29.409Z,1003.80
2019-06-01T06:11:29.393Z,1003.82
2019-06-01T06:12:29.384Z,1003.79
2019-06-01T06:13:29.476Z,1003.79
2019-06-01T06:14:29.358Z,1003.76
2019-06-01T06:15:29.359Z,1003.70
2019-06-01T06:16:29.507Z,1003.74
2019-06-01T06:17:29.325Z,1003.69
2019-06-01T06:18:29.540Z,1003.68
2019-06-01T06:19:29.370Z,1003.72
2019-06-01T06:20:29.296Z,1003.75
2019-06-01T06:21:29.293Z,1003.74
2019-06-01T06:22:29.280Z,1003.74
2019-06-01T06:23:29.263Z,1003.65
2019-06-01T06:24:29.267Z,1003.69
2019-06-01T06:25:31.767Z,1003.67
2019-06-01T06:26:29.486Z,1003.67
2019-06-01T06:27:29.235Z,1003.64
2019-06-01T06:28:29.206Z,1003.59
2019-06-01T06:29:29.205Z,1003.60
2019-06-01T06:30:29.187Z,1003.58
2019-06-01T06:31:29.209Z,1003.56
2019-06-01T06:32:29.164Z,1003.53
2019-06-01T06:33:29.197Z,1003.52
2019-06-01T06:34:29.139Z,1003.46
2019-06-01T06:35:29.123Z,1003.38
2019-06-01T06:36:29.158Z,1003.41
2019-06-01T06:37:29.143Z,1003.45
2019-06-01T06:38:29.106Z,1003.45
2019-06-01T06:39:29.296Z,1003.44
2019-06-01T06:40:29.075Z,1003.48
2019-06-01T06:41:29.061Z,1003.41
2019-06-01T06:42:29.049Z,1003.40
2019-06-01T06:43:33.086Z,1003.40
2019-06-01T06:44:29.031Z,1003.42
2019-06-01T06:45:29.025Z,1003.38
2019-06-01T06:46:29.046Z,1003.32
2019-06-01T06:47:29.022Z,1003.36
2019-06-01T06:48:28.998Z,1003.35
2019-06-01T06:49:29.029Z,1003.29
2019-06-01T06:50:28.987Z,1003.30
2019-06-01T06:51:28.962Z,1003.29
2019-06-01T06:52:28.956Z,1003.35
2019-06-01T06:53:35.119Z,1003.35
2019-06-01T06:54:30.061Z,1003.37
2019-06-01T06:55:28.941Z,1003.39
2019-06-01T06:56:28.907Z,1003.42
2019-06-01T06:57:29.178Z,1003.41
2019-06-01T06:58:28.884Z,1003.43
2019-06-01T06:59:28.877Z,1003.43
2019-06-01T07:00:28.935Z,1003.45
2019-06-01T07:01:28.866Z,1003.47
2019-06-01T07:02:28.863Z,1003.47
2019-06-01T07:03:29.548Z,1003.53
2019-06-01T07:04:28.854Z,1003.52
2019-06-01T07:05:31.414Z,1003.53
2019-06-01T07:06:28.885Z,1003.54
2019-06-01T07:07:28.783Z,1003.54
2019-06-01T07:08:28.841Z,1003.53
2019-06-01T07:09:28.763Z,1003.57
2019-06-01T07:10:28.754Z,1003.54
2019-06-01T07:11:29.461Z,1003.50
2019-06-01T07:12:28.778Z,1003.51
2019-06-01T07:13:28.715Z,1003.52
2019-06-01T07:14:28.752Z,1003.49
2019-06-01T07:15:28.707Z,1003.47
2019-06-01T07:16:28.679Z,1003.47
2019-06-01T07:17:28.690Z,1003.47
2019-06-01T07:18:28.767Z,1003.52
2019-06-01T07:19:28.659Z,1003.52
2019-06-01T07:20:28.638Z,1003.50
2019-06-01T07:21:28.686Z,1003.51
2019-06-01T07:22:28.614Z,1003.44
2019-06-01T07:23:28.693Z,1003.49
2019-06-01T07:24:28.679Z,1003.49
2019-06-01T07:25:28.905Z,1003.47
2019-06-01T07:26:28.574Z,1003.49
2019-06-01T07:27:28.630Z,1003.50
2019-06-01T07:28:28.649Z,1003.52
2019-06-01T07:29:28.555Z,1003.54
2019-06-01T07:30:28.576Z,1003.62
2019-06-01T07:31:28.544Z,1003.61
2019-06-01T07:32:28.732Z,1003.62
2019-06-01T07:33:28.636Z,1003.63
2019-06-01T07:34:39.169Z,1003.68
2019-06-01T07:35:30.535Z,1003.65
2019-06-01T07:36:30.111Z,1003.64
2019-06-01T07:37:28.628Z,1003.63
2019-06-01T07:38:28.959Z,1003.59
2019-06-01T07:39:29.047Z,1003.60
2019-06-01T07:40:28.781Z,1003.60
2019-06-01T07:41:28.843Z,1003.61
2019-06-01T07:42:29.519Z,1003.63
2019-06-01T07:43:28.981Z,1003.63
2019-06-01T07:44:29.251Z,1003.61
2019-06-01T07:45:29.034Z,1003.59
2019-06-01T07:46:29.018Z,1003.62
2019-06-01T07:47:29.200Z,1003.65
2019-06-01T07:48:29.159Z,1003.66
2019-06-01T07:49:29.127Z,1003.63
2019-06-01T07:50:28.322Z,1003.64
2019-06-01T07:51:29.651Z,1003.60
2019-06-01T07:52:28.342Z,1003.60
2019-06-01T07:53:29.424Z,1003.59
2019-06-01T07:54:28.534Z,1003.64
2019-06-01T07:55:29.624Z,1003.62
2019-06-01T07:56:28.657Z,1003.65
2019-06-01T07:57:28.250Z,1003.65
2019-06-01T07:58:28.816Z,1003.61
2019-06-01T07:59:28.994Z,1003.69
2019-06-01T08:00:28.999Z,1003.64
2019-06-01T08:01:29.568Z,1003.63
2019-06-01T08:02:30.630Z,1003.64
2019-06-01T08:03:30.903Z,1003.64
2019-06-01T08:04:31.770Z,1003.59
2019-06-01T08:05:30.198Z,1003.59
2019-06-01T08:06:29.968Z,1003.59
2019-06-01T08:07:29.264Z,1003.57
2019-06-01T08:08:29.354Z,1003.58
2019-06-01T08:09:29.494Z,1003.61
2019-06-01T08:10:29.528Z,1003.60
2019-06-01T08:11:30.078Z,1003.63
2019-06-01T08:12:29.538Z,1003.59
2019-06-01T08:13:32.253Z,1003.54
2019-06-01T08:14:29.068Z,1003.53
2019-06-01T08:15:28.368Z,1003.55
2019-06-01T08:16:28.077Z,1003.58
2019-06-01T08:17:28.198Z,1003.54
2019-06-01T08:18:28.235Z,1003.58
2019-06-01T08:19:28.144Z,1003.56
2019-06-01T08:20:28.595Z,1003.53
2019-06-01T08:21:28.135Z,1003.58
2019-06-01T08:22:28.066Z,1003.58
2019-06-01T08:23:28.381Z,1003.59
2019-06-01T08:24:28.332Z,1003.55
2019-06-01T08:25:28.573Z,1003.55
2019-06-01T08:26:28.539Z,1003.58
2019-06-01T08:27:28.468Z,1003.56
2019-06-01T08:28:29.031Z,1003.57
2019-06-01T08:29:28.847Z,1003.55
2019-06-01T08:30:28.669Z,1003.63
2019-06-01T08:31:28.710Z,1003.60
2019-06-01T08:32:28.685Z,1003.63
2019-06-01T08:33:30.214Z,1003.60
2019-06-01T08:34:28.995Z,1003.60
2019-06-01T08:35:29.057Z,1003.61
2019-06-01T08:36:27.822Z,1003.62
2019-06-01T08:37:27.894Z,1003.58
2019-06-01T08:38:27.885Z,1003.60
2019-06-01T08:39:27.796Z,1003.54
2019-06-01T08:40:27.851Z,1003.55
2019-06-01T08:41:27.762Z,1003.51
2019-06-01T08:42:27.762Z,1003.53
2019-06-01T08:43:27.734Z,1003.50
2019-06-01T08:44:27.809Z,1003.53
2019-06-01T08:45:27.747Z,1003.47
2019-06-01T08:46:27.766Z,1003.49
2019-06-01T08:47:27.870Z,1003.47
2019-06-01T08:48:27.765Z,1003.47
2019-06-01T08:49:28.055Z,1003.47
2019-06-01T08:50:27.763Z,1003.46
2019-06-01T08:51:28.226Z,1003.44
2019-06-01T08:52:28.050Z,1003.44
2019-06-01T08:53:27.898Z,1003.46
2019-06-01T08:54:28.124Z,1003.43
2019-06-01T08:55:28.060Z,1003.47
2019-06-01T08:56:28.230Z,1003.47
2019-06-01T08:57:28.271Z,1003.46
2019-06-01T08:58:28.216Z,1003.45
2019-06-01T08:59:28.368Z,1003.51
2019-06-01T09:00:28.418Z,1003.46
2019-06-01T09:01:28.651Z,1003.49
2019-06-01T09:02:29.078Z,1003.48
2019-06-01T09:03:27.781Z,1003.45
2019-06-01T09:04:28.724Z,1003.45
2019-06-01T09:05:28.905Z,1003.47
2019-06-01T09:06:29.046Z,1003.47
2019-06-01T09:07:27.499Z,1003.45
2019-06-01T09:08:28.812Z,1003.47
2019-06-01T09:09:27.497Z,1003.46
2019-06-01T09:10:27.551Z,1003.47
2019-06-01T09:11:27.445Z,1003.45
2019-06-01T09:12:27.443Z,1003.42
2019-06-01T09:13:27.422Z,1003.44
2019-06-01T09:14:27.450Z,1003.41
2019-06-01T09:15:27.643Z,1003.43
2019-06-01T09:16:27.774Z,1003.38
2019-06-01T09:17:27.397Z,1003.43
2019-06-01T09:18:27.594Z,1003.44
2019-06-01T09:19:27.424Z,1003.37
2019-06-01T09:20:27.470Z,1003.34
2019-06-01T09:21:27.506Z,1003.36
2019-06-01T09:22:27.562Z,1003.37
2019-06-01T09:23:27.640Z,1003.35
2019-06-01T09:24:27.668Z,1003.34
2019-06-01T09:25:27.503Z,1003.37
2019-06-01T09:26:27.735Z,1003.36
2019-06-01T09:27:27.711Z,1003.34
2019-06-01T09:28:27.857Z,1003.37
2019-06-01T09:29:27.819Z,1003.37
2019-06-01T09:30:27.959Z,1003.38
2019-06-01T09:31:28.366Z,1003.38
2019-06-01T09:32:27.901Z,1003.39
2019-06-01T09:33:28.133Z,1003.33
2019-06-01T09:34:28.400Z,1003.38
2019-06-01T09:35:45.964Z,1003.35
2019-06-01T09:36:28.369Z,1003.31
2019-06-01T09:37:28.291Z,1003.30
2019-06-01T09:38:27.647Z,1003.26
2019-06-01T09:39:27.156Z,1003.26
2019-06-01T09:40:28.293Z,1003.22
2019-06-01T09:41:28.144Z,1003.25
2019-06-01T09:42:28.670Z,1003.27
2019-06-01T09:43:27.111Z,1003.23
2019-06-01T09:44:27.098Z,1003.22
2019-06-01T09:45:27.850Z,1003.25
2019-06-01T09:46:27.117Z,1003.27
2019-06-01T09:47:27.162Z,1003.25
2019-06-01T09:48:27.127Z,1003.22
2019-06-01T09:49:27.312Z,1003.24
2019-06-01T09:50:27.288Z,1003.21
2019-06-01T09:51:29.369Z,1003.21
2019-06-01T09:52:27.420Z,1003.22
2019-06-01T09:53:27.507Z,1003.24
2019-06-01T09:54:27.344Z,1003.22
2019-06-01T09:55:27.723Z,1003.21
2019-06-01T09:56:29.130Z,1003.21
2019-06-01T09:57:27.667Z,1003.18
2019-06-01T09:58:28.171Z,1003.18
2019-06-01T09:59:27.747Z,1003.20
2019-06-01T10:00:28.276Z,1003.16
2019-06-01T10:01:28.115Z,1003.17
2019-06-01T10:02:28.010Z,1003.22
2019-06-01T10:03:28.216Z,1003.17
2019-06-01T10:04:28.179Z,1003.20
2019-06-01T10:05:28.240Z,1003.18
2019-06-01T10:06:28.260Z,1003.17
2019-06-01T10:07:26.871Z,1003.20
2019-06-01T10:08:26.845Z,1003.17
2019-06-01T10:09:26.880Z,1003.12
2019-06-01T10:10:26.834Z,1003.15
2019-06-01T10:11:26.816Z,1003.12
2019-06-01T10:12:26.808Z,1003.12
2019-06-01T10:13:26.822Z,1003.16
2019-06-01T10:14:26.768Z,1003.13
2019-06-01T10:15:26.829Z,1003.13
2019-06-01T10:16:26.764Z,1003.14
2019-06-01T10:17:26.751Z,1003.13
2019-06-01T10:18:27.195Z,1003.14
2019-06-01T10:19:26.720Z,1003.12
2019-06-01T10:20:26.713Z,1003.13
2019-06-01T10:21:26.746Z,1003.18
2019-06-01T10:22:26.695Z,1003.17
2019-06-01T10:23:26.671Z,1003.18
2019-06-01T10:24:26.672Z,1003.13
2019-06-01T10:25:26.666Z,1003.15
2019-06-01T10:26:26.739Z,1003.17
2019-06-01T10:27:26.657Z,1003.11
2019-06-01T10:28:26.621Z,1003.18
2019-06-01T10:29:26.634Z,1003.12
2019-06-01T10:30:26.602Z,1003.12
2019-06-01T10:31:26.596Z,1003.12
2019-06-01T10:32:26.768Z,1003.10
2019-06-01T10:33:26.618Z,1003.08
2019-06-01T10:34:26.562Z,1003.11
2019-06-01T10:35:26.556Z,1003.08
2019-06-01T10:36:26.548Z,1003.13
2019-06-01T10:37:26.599Z,1003.11
2019-06-01T10:38:26.509Z,1003.14
2019-06-01T10:39:26.565Z,1003.12
2019-06-01T10:40:26.503Z,1003.05
2019-06-01T10:41:26.489Z,1003.07
2019-06-01T10:42:26.470Z,1003.01
2019-06-01T10:43:26.478Z,1003.06
2019-06-01T10:44:26.463Z,1003.06
2019-06-01T10:45:26.656Z,1003.03
2019-06-01T10:46:26.433Z,1003.02
2019-06-01T10:47:26.423Z,1003.03
2019-06-01T10:48:26.423Z,1003.05
2019-06-01T10:49:26.448Z,1003.04
2019-06-01T10:50:26.443Z,1003.01
2019-06-01T10:51:26.423Z,1002.99
2019-06-01T10:52:26.412Z,1003.00
2019-06-01T10:53:26.369Z,1003.01
2019-06-01T10:54:26.363Z,1002.99
2019-06-01T10:55:26.396Z,1002.99
2019-06-01T10:56:26.340Z,1002.97
2019-06-01T10:57:26.354Z,1003.01
2019-06-01T10:58:26.301Z,1002.99
2019-06-01T10:59:26.375Z,1002.95
2019-06-01T11:00:37.839Z,1002.94
2019-06-01T11:01:27.293Z,1002.98
2019-06-01T11:02:26.317Z,1002.97
2019-06-01T11:03:26.539Z,1002.99
2019-06-01T11:04:26.239Z,1002.97
2019-06-01T11:05:26.348Z,1002.95
2019-06-01T11:06:36.720Z,1002.92
2019-06-01T11:07:27.219Z,1002.90
2019-06-01T11:08:26.216Z,1002.92
2019-06-01T11:09:26.250Z,1002.91
2019-06-01T11:10:26.177Z,1002.93
2019-06-01T11:11:26.168Z,1002.92
2019-06-01T11:12:26.154Z,1002.87
2019-06-01T11:13:26.147Z,1002.87
2019-06-01T11:14:26.156Z,1002.88
2019-06-01T11:15:26.157Z,1002.88
2019-06-01T11:16:26.110Z,1002.88
2019-06-01T11:17:26.136Z,1002.82
2019-06-01T11:18:26.095Z,1002.82
2019-06-01T11:19:26.128Z,1002.85
2019-06-01T11:20:26.076Z,1002.83
2019-06-01T11:21:26.106Z,1002.82
2019-06-01T11:22:26.047Z,1002.77
2019-06-01T11:23:26.032Z,1002.71
2019-06-01T11:24:26.036Z,1002.74
2019-06-01T11:25:26.035Z,1002.75
2019-06-01T11:26:26.011Z,1002.77
2019-06-01T11:27:26.046Z,1002.75
2019-06-01T11:28:25.987Z,1002.68
2019-06-01T11:29:25.984Z,1002.68
2019-06-01T11:30:25.973Z,1002.70
2019-06-01T11:31:25.955Z,1002.75
2019-06-01T11:32:25.959Z,1002.75
2019-06-01T11:33:25.980Z,1002.76
2019-06-01T11:34:25.944Z,1002.70
2019-06-01T11:35:25.917Z,1002.77
2019-06-01T11:36:25.931Z,1002.78
2019-06-01T11:37:25.900Z,1002.74
2019-06-01T11:38:25.930Z,1002.71
2019-06-01T11:39:25.937Z,1002.73
2019-06-01T11:40:25.860Z,1002.72
2019-06-01T11:41:25.876Z,1002.72
2019-06-01T11:42:25.857Z,1002.68
2019-06-01T11:43:25.870Z,1002.69
2019-06-01T11:44:25.831Z,1002.64
2019-06-01T11:45:25.851Z,1002.66
2019-06-01T11:46:25.802Z,1002.63
2019-06-01T11:47:25.826Z,1002.68
2019-06-01T11:48:25.795Z,1002.67
2019-06-01T11:49:25.802Z,1002.62
2019-06-01T11:50:25.760Z,1002.68
2019-06-01T11:51:25.816Z,1002.70
2019-06-01T11:52:25.732Z,1002.67
2019-06-01T11:53:25.724Z,1002.69
2019-06-01T11:54:25.723Z,1002.66
2019-06-01T11:55:25.703Z,1002.70
2019-06-01T11:56:25.725Z,1002.71
2019-06-01T11:57:25.730Z,1002.61
2019-06-01T11:58:25.682Z,1002.63
2019-06-01T11:59:25.663Z,1002.62
2019-06-01T12:00:25.799Z,1002.56
2019-06-01T12:01:25.677Z,1002.56
2019-06-01T12:02:25.647Z,1002.59
2019-06-01T12:03:25.658Z,1002.57
2019-06-01T12:04:25.619Z,1002.59
2019-06-01T12:05:25.616Z,1002.59
2019-06-01T12:06:25.627Z,1002.51